Time;durP1;ratioP1;P1;durP2;ratioP2;P2;SDS_P1;SDS_P2;PMS_P1;PMS_P2;Temp;Humidity;BMP_temperature;BMP_pressure;BME280_temperature;BME280_humidity;BME280_pressure;Samples;Min_cycle;Max_cycle;Signal;HPM_P1;HPM_P2
2022/09/29 00:00:21;;;;;;;5.05;1.40;;;18.90;99.90;;;;;;5093829;28;20032;-82
2022/09/29 00:02:47;;;;;;;7.35;1.90;;;18.90;99.90;;;;;;5072068;28;20037;-82
2022/09/29 00:05:19;;;;;;;6.93;1.77;;;18.80;99.90;;;;;;5073816;28;20182;-82
2022/09/29 00:07:50;;;;;;;7.05;1.85;;;18.80;99.90;;;;;;5058134;28;20121;-82
2022/09/29 00:10:16;;;;;;;6.80;1.70;;;18.90;99.90;;;;;;5040407;28;20489;-82
2022/09/29 00:12:41;;;;;;;3.67;1.55;;;19.00;99.90;;;;;;5060071;28;20043;-81
2022/09/29 00:15:08;;;;;;;6.88;1.67;;;19.00;99.90;;;;;;5084803;28;20036;-82
2022/09/29 00:17:37;;;;;;;6.63;1.58;;;19.00;99.90;;;;;;5042828;28;20041;-81
2022/09/29 00:20:05;;;;;;;4.93;1.67;;;19.00;99.90;;;;;;5053155;28;20037;-80
2022/09/29 00:22:33;;;;;;;7.13;1.63;;;19.00;99.90;;;;;;5058330;28;20071;-82
2022/09/29 00:25:00;;;;;;;8.68;1.73;;;19.00;99.90;;;;;;5059906;28;20029;-81
2022/09/29 00:27:27;;;;;;;5.70;1.90;;;19.00;99.90;;;;;;5053323;28;20059;-80
2022/09/29 00:29:53;;;;;;;5.95;1.58;;;19.00;99.90;;;;;;5058823;28;20055;-82
2022/09/29 00:32:21;;;;;;;5.50;1.40;;;18.90;99.90;;;;;;5049959;28;20034;-81
2022/09/29 00:34:49;;;;;;;8.73;1.83;;;18.90;99.90;;;;;;5059714;28;20036;-81
2022/09/29 00:37:15;;;;;;;8.40;1.65;;;18.80;99.90;;;;;;5046076;28;20724;-82
2022/09/29 00:39:42;;;;;;;6.55;1.40;;;18.80;99.90;;;;;;5057327;28;20041;-81
2022/09/29 00:42:11;;;;;;;6.20;1.70;;;18.70;99.90;;;;;;5025319;28;20199;-81
2022/09/29 00:45:08;;;;;;;10.35;1.80;;;18.70;99.90;;;;;;5076269;28;20056;-81
2022/09/29 00:47:38;;;;;;;8.38;1.50;;;18.60;99.90;;;;;;5054652;28;20029;-81
2022/09/29 00:50:18;;;;;;;8.20;1.70;;;18.60;99.90;;;;;;5050214;28;20461;-82
2022/09/29 00:52:54;;;;;;;7.53;2.08;;;18.50;99.90;;;;;;5058152;28;20048;-81
2022/09/29 00:55:42;;;;;;;7.07;1.13;;;18.50;99.90;;;;;;5055614;28;20063;-81
2022/09/29 00:58:31;;;;;;;7.18;1.75;;;18.40;99.90;;;;;;5054266;28;20037;-81
2022/09/29 01:00:58;;;;;;;6.70;1.60;;;18.40;99.90;;;;;;5058936;28;20066;-82
2022/09/29 01:03:32;;;;;;;7.85;1.33;;;18.40;99.90;;;;;;5049767;28;20037;-81
2022/09/29 01:06:01;;;;;;;6.15;1.10;;;18.50;99.90;;;;;;5065313;28;20021;-82
2022/09/29 01:08:37;;;;;;;10.45;1.40;;;18.40;99.90;;;;;;5089473;28;20033;-82
2022/09/29 01:11:04;;;;;;;8.35;1.58;;;18.40;99.90;;;;;;5078730;28;20116;-80
2022/09/29 01:13:32;;;;;;;4.72;1.40;;;18.30;99.90;;;;;;5069220;28;20056;-81
2022/09/29 01:15:59;;;;;;;6.88;1.30;;;18.30;99.90;;;;;;5061390;28;20037;-82
2022/09/29 01:18:26;;;;;;;4.75;1.35;;;18.30;99.90;;;;;;5057064;28;20037;-81
2022/09/29 01:21:19;;;;;;;4.97;1.23;;;18.20;99.90;;;;;;5059188;28;20033;-81
2022/09/29 01:24:18;;;;;;;10.25;1.50;;;18.20;99.90;;;;;;5075719;28;20025;-81
2022/09/29 01:27:00;;;;;;;6.63;2.22;;;18.20;99.90;;;;;;5079996;28;20138;-81
2022/09/29 01:29:29;;;;;;;7.25;1.42;;;18.20;99.90;;;;;;5059536;28;20063;-81
2022/09/29 01:32:16;;;;;;;4.38;1.25;;;18.20;99.90;;;;;;5058137;28;20067;-81
2022/09/29 01:35:20;;;;;;;5.28;1.35;;;18.20;99.90;;;;;;5059073;28;20033;-81
2022/09/29 01:37:53;;;;;;;7.53;1.33;;;18.20;99.90;;;;;;5064622;28;20078;-80
2022/09/29 01:40:35;;;;;;;4.93;1.05;;;18.10;99.90;;;;;;5063908;28;20047;-80
2022/09/29 01:43:33;;;;;;;5.68;0.93;;;18.10;99.90;;;;;;5075829;28;20040;-81
2022/09/29 01:46:31;;;;;;;5.30;1.23;;;18.10;99.90;;;;;;5067162;28;20029;-81
2022/09/29 01:48:59;;;;;;;4.55;1.00;;;18.10;99.90;;;;;;5093961;28;20082;-81
2022/09/29 01:51:50;;;;;;;7.05;1.38;;;18.10;99.90;;;;;;5078150;28;20024;-82
2022/09/29 01:54:24;;;;;;;6.07;1.00;;;18.10;99.90;;;;;;5076085;28;20031;-80
2022/09/29 01:56:59;;;;;;;6.13;1.27;;;18.00;99.90;;;;;;5075423;28;20033;-81
2022/09/29 01:59:41;;;;;;;7.22;1.30;;;18.10;99.90;;;;;;5083911;28;20033;-82
2022/09/29 02:02:13;;;;;;;5.32;1.30;;;18.00;99.90;;;;;;5074563;28;20134;-81
2022/09/29 02:04:49;;;;;;;5.93;1.20;;;17.90;99.90;;;;;;5073048;28;20045;-81
2022/09/29 02:07:46;;;;;;;5.63;1.10;;;17.90;99.90;;;;;;5070740;28;20032;-82
2022/09/29 02:10:35;;;;;;;7.82;1.52;;;17.90;99.90;;;;;;5062883;28;20045;-81
2022/09/29 02:13:04;;;;;;;7.07;1.00;;;18.00;99.90;;;;;;5078677;28;20044;-81
2022/09/29 02:15:42;;;;;;;5.60;1.23;;;18.00;99.90;;;;;;5075782;28;20033;-81
2022/09/29 02:18:16;;;;;;;6.15;1.10;;;18.10;99.90;;;;;;5090358;28;20100;-81
2022/09/29 02:20:58;;;;;;;6.03;1.27;;;18.00;99.90;;;;;;5078105;28;20132;-81
2022/09/29 02:23:30;;;;;;;9.45;1.27;;;18.00;99.90;;;;;;5070488;28;20037;-82
2022/09/29 02:25:57;;;;;;;;;;;18.00;99.90;;;;;;5081495;28;20216;-82
2022/09/29 02:28:26;;;;;;;9.65;1.10;;;18.00;99.90;;;;;;5069542;28;19913;-81
2022/09/29 02:30:53;;;;;;;7.28;1.10;;;18.00;99.90;;;;;;5074062;28;20045;-82
2022/09/29 02:33:22;;;;;;;7.22;1.20;;;18.10;99.90;;;;;;5062283;28;20039;-82
2022/09/29 02:36:26;;;;;;;8.73;1.50;;;18.10;99.90;;;;;;5075756;28;20033;-81
2022/09/29 02:39:16;;;;;;;6.28;0.98;;;18.10;99.90;;;;;;5081657;28;20040;-82
2022/09/29 02:42:10;;;;;;;8.93;1.20;;;18.10;99.90;;;;;;5078718;27;20033;-81
2022/09/29 02:45:14;;;;;;;8.98;1.80;;;18.10;99.90;;;;;;5078842;28;20029;-82
2022/09/29 02:48:06;;;;;;;9.25;1.23;;;18.10;99.90;;;;;;5070793;28;20036;-81
2022/09/29 02:51:12;;;;;;;4.97;1.40;;;18.10;99.90;;;;;;5081705;28;20033;-83
2022/09/29 02:54:03;;;;;;;7.97;1.00;;;18.10;99.90;;;;;;5068791;28;20441;-82
2022/09/29 02:56:32;;;;;;;7.30;1.13;;;18.10;99.90;;;;;;5069292;28;20052;-81
2022/09/29 02:59:00;;;;;;;6.00;1.40;;;18.10;99.90;;;;;;5081756;28;20518;-81
2022/09/29 03:01:45;;;;;;;9.07;1.45;;;18.10;99.90;;;;;;5065898;28;20044;-81
2022/09/29 03:04:17;;;;;;;;;;;18.10;99.90;;;;;;5062328;28;20068;-81
2022/09/29 03:06:44;;;;;;;6.82;1.10;;;18.20;99.90;;;;;;5075189;28;19924;-80
2022/09/29 03:09:10;;;;;;;8.52;1.63;;;18.20;99.90;;;;;;5083240;28;20048;-81
2022/09/29 03:11:37;;;;;;;6.15;1.00;;;18.20;99.90;;;;;;5077574;28;20040;-81
2022/09/29 03:14:03;;;;;;;7.85;1.20;;;18.20;99.90;;;;;;5080721;28;20123;-81
2022/09/29 03:16:29;;;;;;;6.25;1.15;;;18.30;99.90;;;;;;5069745;28;20069;-81
2022/09/29 03:18:55;;;;;;;6.55;1.30;;;18.30;99.90;;;;;;5087213;28;20037;-81
2022/09/29 03:21:23;;;;;;;10.50;1.90;;;18.40;99.90;;;;;;5076346;28;20043;-81
2022/09/29 03:23:49;;;;;;;8.23;1.40;;;18.40;99.90;;;;;;5081722;28;20040;-81
2022/09/29 03:26:20;;;;;;;7.47;1.70;;;18.50;99.90;;;;;;5084459;28;20112;-82
2022/09/29 03:28:47;;;;;;;6.20;1.02;;;18.50;99.90;;;;;;5076830;28;20032;-81
2022/09/29 03:31:12;;;;;;;6.90;1.15;;;18.50;99.90;;;;;;5063195;28;20051;-82
2022/09/29 03:33:39;;;;;;;7.53;1.00;;;18.40;99.90;;;;;;5076056;28;20025;-81
2022/09/29 03:36:12;;;;;;;9.95;1.10;;;18.40;99.90;;;;;;5062150;28;20036;-81
2022/09/29 03:38:38;;;;;;;8.30;1.50;;;18.40;99.90;;;;;;5077920;28;20111;-80
2022/09/29 03:41:07;;;;;;;6.40;1.40;;;18.50;99.90;;;;;;5079993;28;20104;-82
2022/09/29 03:43:34;;;;;;;5.53;1.70;;;18.40;99.90;;;;;;5076882;28;20029;-82
2022/09/29 03:46:00;;;;;;;9.30;1.65;;;18.40;99.90;;;;;;5083265;28;20040;-80
2022/09/29 03:48:30;;;;;;;7.50;1.80;;;18.40;99.90;;;;;;5080732;28;20040;-81
2022/09/29 03:50:56;;;;;;;3.25;0.98;;;18.40;99.90;;;;;;5084563;28;20044;-81
2022/09/29 03:53:22;;;;;;;3.10;1.15;;;18.50;99.90;;;;;;5079556;28;20044;-81
2022/09/29 03:55:49;;;;;;;2.25;0.60;;;18.50;99.90;;;;;;5075769;28;20105;-81
2022/09/29 03:58:16;;;;;;;2.25;0.50;;;18.50;99.90;;;;;;5077281;28;20057;-81
2022/09/29 04:00:42;;;;;;;2.22;0.40;;;18.40;99.90;;;;;;5077947;28;20033;-81
2022/09/29 04:03:09;;;;;;;3.00;0.75;;;18.40;99.90;;;;;;5074219;28;20045;-81
2022/09/29 04:05:38;;;;;;;2.83;0.40;;;18.30;99.90;;;;;;5094518;28;20421;-82
2022/09/29 04:08:05;;;;;;;1.75;0.40;;;18.30;99.90;;;;;;5082153;28;20032;-81
2022/09/29 04:10:37;;;;;;;2.58;0.30;;;18.20;99.90;;;;;;5063374;28;20029;-81
2022/09/29 04:13:04;;;;;;;2.20;0.20;;;18.20;99.90;;;;;;5091654;27;20039;-81
2022/09/29 04:15:30;;;;;;;2.15;0.50;;;18.20;99.90;;;;;;5070335;28;20070;-81
2022/09/29 04:17:57;;;;;;;0.95;0.35;;;18.10;99.90;;;;;;5060042;28;20045;-82
2022/09/29 04:20:23;;;;;;;1.55;0.25;;;18.10;99.90;;;;;;5064933;28;20029;-81
2022/09/29 04:22:49;;;;;;;1.85;0.28;;;18.10;99.90;;;;;;5072319;28;20024;-81
2022/09/29 04:25:15;;;;;;;2.88;0.60;;;18.10;99.90;;;;;;5061884;28;20051;-81
2022/09/29 04:27:42;;;;;;;1.83;0.50;;;18.10;99.90;;;;;;5092485;28;20044;-82
2022/09/29 04:30:09;;;;;;;1.58;0.52;;;18.00;99.90;;;;;;5076355;28;20032;-82
2022/09/29 04:32:38;;;;;;;3.70;0.30;;;18.00;99.90;;;;;;5080463;28;20047;-80
2022/09/29 04:35:05;;;;;;;1.90;0.40;;;17.90;99.90;;;;;;5060641;28;20037;-81
2022/09/29 04:37:31;;;;;;;1.20;0.30;;;17.90;99.90;;;;;;5082522;28;20088;-82
2022/09/29 04:39:57;;;;;;;1.58;0.32;;;17.80;99.90;;;;;;5079052;28;20074;-82
2022/09/29 04:42:23;;;;;;;3.40;0.40;;;17.80;99.90;;;;;;5079924;28;20074;-81
2022/09/29 04:44:48;;;;;;;2.03;0.22;;;17.80;99.90;;;;;;5076239;28;20040;-81
2022/09/29 04:47:16;;;;;;;0.65;0.20;;;17.80;99.90;;;;;;5080216;28;20037;-81
2022/09/29 04:49:42;;;;;;;2.25;0.35;;;17.90;99.90;;;;;;5074753;28;20036;-82
2022/09/29 04:52:11;;;;;;;3.85;0.40;;;17.90;99.90;;;;;;5074864;28;20486;-81
2022/09/29 04:54:37;;;;;;;1.85;0.50;;;17.90;99.90;;;;;;5082424;28;20032;-81
2022/09/29 04:57:03;;;;;;;1.83;0.50;;;17.80;99.90;;;;;;5043260;28;20036;-81
2022/09/29 04:59:29;;;;;;;2.33;0.30;;;17.90;99.90;;;;;;5093389;28;20084;-81
2022/09/29 05:01:55;;;;;;;1.58;0.30;;;17.80;99.90;;;;;;5077458;28;20043;-81
2022/09/29 05:04:21;;;;;;;0.68;0.30;;;17.80;99.90;;;;;;5077636;28;20033;-82
2022/09/29 05:06:47;;;;;;;0.70;0.20;;;17.70;99.90;;;;;;5079082;28;20045;-81
2022/09/29 05:09:13;;;;;;;1.27;0.30;;;17.70;99.90;;;;;;5083185;28;20017;-80
2022/09/29 05:11:39;;;;;;;2.80;0.47;;;17.60;99.90;;;;;;5080410;28;20044;-81
2022/09/29 05:14:06;;;;;;;3.08;0.32;;;17.50;99.90;;;;;;5075336;28;20127;-82
2022/09/29 05:16:32;;;;;;;1.27;0.30;;;17.40;99.90;;;;;;5078237;28;20096;-81
2022/09/29 05:18:58;;;;;;;2.53;0.40;;;17.40;99.90;;;;;;5076081;28;20044;-81
2022/09/29 05:21:24;;;;;;;2.50;0.40;;;17.30;99.90;;;;;;5078746;28;20043;-82
2022/09/29 05:23:50;;;;;;;1.35;0.40;;;17.30;99.90;;;;;;5082217;28;20033;-82
2022/09/29 05:26:16;;;;;;;2.20;0.30;;;17.30;99.90;;;;;;5077557;28;20048;-82
2022/09/29 05:28:44;;;;;;;1.58;0.43;;;17.20;99.90;;;;;;5082503;28;20525;-82
2022/09/29 05:31:10;;;;;;;2.65;0.50;;;17.10;99.90;;;;;;5073935;27;20421;-81
2022/09/29 05:33:37;;;;;;;15.85;6.97;;;17.10;99.90;;;;;;5077602;28;20024;-80
2022/09/29 05:36:08;;;;;;;3.20;0.30;;;17.10;99.90;;;;;;5080409;28;20066;-81
2022/09/29 05:38:35;;;;;;;1.13;0.30;;;17.10;99.90;;;;;;5078609;28;20036;-83
2022/09/29 05:41:12;;;;;;;1.50;0.32;;;17.10;99.90;;;;;;5077376;28;20037;-80
2022/09/29 05:43:39;;;;;;;1.13;0.30;;;17.00;99.90;;;;;;5095245;28;20020;-81
2022/09/29 05:46:07;;;;;;;1.75;0.32;;;17.00;99.90;;;;;;5073639;28;20118;-80
2022/09/29 05:48:33;;;;;;;2.92;0.52;;;17.00;99.90;;;;;;5082058;28;20029;-81
2022/09/29 05:51:07;;;;;;;2.17;0.43;;;17.00;99.90;;;;;;5079423;28;20047;-81
2022/09/29 05:53:36;;;;;;;1.85;0.40;;;17.00;99.90;;;;;;5061097;28;20132;-82
2022/09/29 05:56:18;;;;;;;2.40;0.40;;;17.00;99.90;;;;;;5073415;28;20060;-82
2022/09/29 05:58:44;;;;;;;1.33;0.40;;;16.90;99.90;;;;;;5049021;28;20048;-82
2022/09/29 06:01:13;;;;;;;2.05;0.77;;;16.90;99.90;;;;;;5084076;28;20028;-83
2022/09/29 06:03:40;;;;;;;3.88;0.60;;;16.90;99.90;;;;;;5082676;28;20029;-82
2022/09/29 06:06:12;;;;;;;5.18;0.70;;;16.90;99.90;;;;;;5059417;28;20037;-82
2022/09/29 06:08:39;;;;;;;2.53;0.30;;;16.90;99.90;;;;;;5071724;28;20590;-82
2022/09/29 06:11:21;;;;;;;1.60;0.40;;;16.90;99.90;;;;;;5073074;28;20047;-83
2022/09/29 06:13:49;;;;;;;3.00;0.50;;;16.90;99.90;;;;;;5064354;28;20041;-82
2022/09/29 06:16:16;;;;;;;1.92;0.40;;;16.90;99.90;;;;;;5069373;28;20063;-81
2022/09/29 06:18:42;;;;;;;2.90;0.73;;;16.90;99.90;;;;;;5078930;28;20033;-81
2022/09/29 06:21:14;;;;;;;1.70;0.50;;;16.90;99.90;;;;;;5081008;28;20035;-81
2022/09/29 06:23:40;;;;;;;2.20;0.50;;;16.80;99.90;;;;;;5060438;28;20024;-82
2022/09/29 06:26:09;;;;;;;2.65;0.70;;;16.90;99.90;;;;;;5075739;28;20048;-80
2022/09/29 06:28:35;;;;;;;2.65;0.60;;;16.90;99.90;;;;;;5079766;28;20089;-82
2022/09/29 06:31:08;;;;;;;2.38;0.50;;;16.90;99.90;;;;;;5082881;28;20032;-81
2022/09/29 06:33:35;;;;;;;2.50;0.50;;;16.80;99.90;;;;;;5062351;28;20029;-82
2022/09/29 06:39:00;;;;;;;3.75;0.65;;;17.00;99.90;;;;;;5053253;28;20044;-81
2022/09/29 06:41:27;;;;;;;6.90;1.00;;;17.00;99.90;;;;;;5065868;28;20016;-80
2022/09/29 06:43:53;;;;;;;;;;;17.10;99.90;;;;;;5073024;28;20086;-82
2022/09/29 06:46:19;;;;;;;1.80;0.40;;;17.10;99.90;;;;;;5084329;28;19911;-81
2022/09/29 06:48:45;;;;;;;3.35;0.80;;;17.10;99.90;;;;;;5093958;28;20040;-81
2022/09/29 06:51:10;;;;;;;2.30;0.68;;;17.10;99.90;;;;;;5080844;28;20032;-80
2022/09/29 06:53:36;;;;;;;2.42;0.60;;;17.20;99.90;;;;;;5071728;28;20033;-80
2022/09/29 06:56:04;;;;;;;5.25;0.93;;;17.20;99.90;;;;;;5080392;28;20048;-81
2022/09/29 06:58:30;;;;;;;4.50;0.80;;;17.20;99.90;;;;;;5066097;28;20029;-81
2022/09/29 07:01:00;;;;;;;2.38;0.80;;;17.10;99.90;;;;;;5071108;28;20045;-81
2022/09/29 07:03:27;;;;;;;2.13;0.68;;;17.10;99.90;;;;;;5010541;28;20078;-72
2022/09/29 07:05:52;;;;;;;5.72;0.80;;;17.00;99.90;;;;;;5041455;28;20079;-70
2022/09/29 07:08:19;;;;;;;5.40;0.52;;;17.10;99.90;;;;;;5058857;28;20069;-72
2022/09/29 07:10:49;;;;;;;4.50;0.63;;;17.20;99.90;;;;;;5041612;28;20491;-72
2022/09/29 07:13:15;;;;;;;3.75;0.50;;;17.10;99.90;;;;;;5055303;28;20118;-72
2022/09/29 07:15:41;;;;;;;3.33;0.60;;;17.10;99.90;;;;;;5058173;28;20103;-73
2022/09/29 07:18:06;;;;;;;2.83;0.50;;;17.10;99.90;;;;;;5061458;28;20063;-71
2022/09/29 07:20:34;;;;;;;4.47;0.75;;;17.10;99.90;;;;;;5055854;28;20041;-71
2022/09/29 07:23:00;;;;;;;5.45;0.85;;;17.20;99.90;;;;;;5056070;28;20047;-71
2022/09/29 07:25:25;;;;;;;1.70;0.57;;;17.10;99.90;;;;;;5058150;28;20037;-71
2022/09/29 07:27:51;;;;;;;3.25;0.80;;;17.10;99.90;;;;;;5048244;28;20033;-72
2022/09/29 07:30:18;;;;;;;2.53;0.70;;;17.10;99.90;;;;;;5048148;28;20049;-72
2022/09/29 07:32:44;;;;;;;4.43;0.80;;;17.10;99.90;;;;;;5063160;28;20055;-73
2022/09/29 07:35:09;;;;;;;5.13;0.75;;;17.20;99.90;;;;;;5060024;28;20036;-72
2022/09/29 07:37:35;;;;;;;2.72;0.60;;;17.20;99.90;;;;;;5066404;28;20526;-71
2022/09/29 07:40:03;;;;;;;3.47;0.90;;;17.20;99.90;;;;;;5056299;28;20033;-72
2022/09/29 07:42:29;;;;;;;2.25;0.65;;;17.20;99.90;;;;;;5061811;28;20033;-72
2022/09/29 07:44:55;;;;;;;3.38;0.60;;;17.30;99.90;;;;;;5064988;28;20154;-72
2022/09/29 07:47:21;;;;;;;1.77;0.55;;;17.20;99.90;;;;;;5055077;28;20033;-72
2022/09/29 07:49:47;;;;;;;2.35;0.63;;;17.30;99.90;;;;;;5061832;28;20037;-72
2022/09/29 07:52:14;;;;;;;2.65;0.60;;;17.40;99.90;;;;;;5066934;28;20037;-73
2022/09/29 07:54:39;;;;;;;2.88;0.70;;;17.40;99.90;;;;;;5061194;28;20040;-72
2022/09/29 07:57:05;;;;;;;1.75;0.60;;;17.50;99.90;;;;;;5057500;28;20064;-73
2022/09/29 07:59:31;;;;;;;4.28;0.70;;;17.60;99.90;;;;;;5058697;28;20094;-72
2022/09/29 08:01:57;;;;;;;2.47;0.50;;;17.60;99.90;;;;;;5057911;28;20427;-72
2022/09/29 08:04:23;;;;;;;2.35;0.55;;;17.60;99.90;;;;;;5057486;28;20036;-72
2022/09/29 08:06:50;;;;;;;5.88;0.70;;;17.50;99.90;;;;;;5049269;28;20535;-72
2022/09/29 08:09:16;;;;;;;5.00;0.80;;;17.80;99.90;;;;;;5069608;28;20037;-71
2022/09/29 08:11:43;;;;;;;3.33;0.50;;;17.90;99.90;;;;;;5060052;28;20037;-72
2022/09/29 08:14:10;;;;;;;3.08;0.70;;;18.10;99.90;;;;;;5061524;28;20059;-72
2022/09/29 08:16:36;;;;;;;4.32;0.85;;;18.30;99.90;;;;;;5058822;28;20048;-71
2022/09/29 08:19:04;;;;;;;4.82;1.55;;;18.80;99.90;;;;;;5055971;28;20073;-72
2022/09/29 08:21:35;;;;;;;4.90;1.73;;;19.60;99.90;;;;;;5076830;28;20040;-72
2022/09/29 08:24:03;;;;;;;3.60;0.70;;;19.90;99.90;;;;;;5055737;28;20052;-72
2022/09/29 08:26:31;;;;;;;3.35;0.93;;;19.20;99.90;;;;;;5059094;28;20076;-73
2022/09/29 08:28:57;;;;;;;4.75;1.10;;;19.00;99.90;;;;;;5068541;28;20491;-72
2022/09/29 08:31:23;;;;;;;5.10;1.00;;;19.10;99.90;;;;;;5074452;28;20045;-72
2022/09/29 08:33:50;;;;;;;5.30;1.20;;;19.40;99.90;;;;;;5058249;28;20045;-72
2022/09/29 08:36:17;;;;;;;4.97;1.05;;;19.80;99.90;;;;;;5062866;28;20079;-71
2022/09/29 08:38:45;;;;;;;5.22;1.13;;;19.60;99.90;;;;;;5057298;28;20107;-72
2022/09/29 08:41:32;;;;;;;5.32;0.93;;;19.80;99.90;;;;;;5058775;28;20491;-72
2022/09/29 08:44:24;;;;;;;3.90;1.00;;;19.50;99.90;;;;;;5058378;28;20071;-72
2022/09/29 08:47:23;;;;;;;3.53;0.70;;;19.20;99.90;;;;;;5052915;28;20029;-71
2022/09/29 08:50:13;;;;;;;3.70;0.85;;;18.70;99.90;;;;;;5022932;28;20066;-73
2022/09/29 08:52:43;;;;;;;2.88;0.77;;;18.80;99.90;;;;;;5025846;28;20034;-71
2022/09/29 08:55:15;;;;;;;3.60;0.73;;;19.40;99.90;;;;;;5037802;28;20042;-72
2022/09/29 08:57:42;;;;;;;10.07;1.52;;;19.90;99.90;;;;;;5036591;28;20108;-72
2022/09/29 09:00:13;;;;;;;4.78;0.93;;;20.60;99.90;;;;;;5047007;28;20044;-71
2022/09/29 09:03:04;;;;;;;4.07;0.80;;;20.30;99.90;;;;;;5059835;28;20056;-72
2022/09/29 09:05:44;;;;;;;4.43;1.05;;;20.20;99.90;;;;;;5064980;28;20036;-73
2022/09/29 09:08:42;;;;;;;2.88;0.75;;;19.60;99.90;;;;;;5059172;28;20519;-73
2022/09/29 09:11:26;;;;;;;3.35;0.98;;;20.10;99.90;;;;;;5054374;28;20037;-73
2022/09/29 09:14:30;;;;;;;2.70;1.00;;;19.90;99.90;;;;;;5057540;28;20041;-73
2022/09/29 09:16:59;;;;;;;6.00;1.30;;;20.00;99.90;;;;;;5055478;28;20041;-72
2022/09/29 09:19:49;;;;;;;5.68;0.93;;;20.10;99.90;;;;;;5058937;28;20033;-72
2022/09/29 09:23:02;;;;;;;4.07;0.90;;;20.70;99.90;;;;;;5052916;28;20032;-72
2022/09/29 09:25:33;;;;;;;2.50;0.73;;;20.80;99.90;;;;;;5014718;28;20041;-72
2022/09/29 09:28:10;;;;;;;2.83;1.40;;;21.10;99.90;;;;;;5058907;28;20592;-72
2022/09/29 09:30:53;;;;;;;3.08;0.75;;;21.20;99.90;;;;;;5063525;28;20116;-72
2022/09/29 09:33:43;;;;;;;4.63;0.88;;;21.40;99.90;;;;;;5072827;28;20064;-74
2022/09/29 09:36:23;;;;;;;11.18;5.53;;;22.50;99.90;;;;;;5057860;28;20123;-73
2022/09/29 09:39:01;;;;;;;2.25;0.82;;;22.40;98.90;;;;;;5061747;28;20051;-72
2022/09/29 09:41:28;;;;;;;3.45;0.93;;;21.40;99.50;;;;;;5061808;28;20712;-73
2022/09/29 09:44:17;;;;;;;3.33;1.05;;;21.30;99.90;;;;;;5062166;28;20032;-72
2022/09/29 09:46:49;;;;;;;3.88;0.82;;;21.30;99.90;;;;;;5054600;28;20036;-72
2022/09/29 09:49:30;;;;;;;4.68;0.88;;;20.70;99.90;;;;;;5052252;28;20036;-72
2022/09/29 09:52:03;;;;;;;4.25;1.23;;;21.00;99.90;;;;;;5071841;28;20053;-72
2022/09/29 09:54:46;;;;;;;3.72;0.82;;;20.60;99.90;;;;;;5040297;28;20033;-73
2022/09/29 09:57:15;;;;;;;2.22;0.50;;;20.50;99.90;;;;;;5043283;28;20827;-73
2022/09/29 10:00:10;;;;;;;4.72;0.90;;;20.60;99.90;;;;;;5060884;28;20040;-72
2022/09/29 10:02:45;;;;;;;2.90;0.60;;;20.70;99.90;;;;;;5071759;28;20404;-73
2022/09/29 10:05:13;;;;;;;5.47;0.98;;;20.50;99.90;;;;;;5053262;28;20045;-72
2022/09/29 10:07:39;;;;;;;4.03;0.90;;;20.50;99.90;;;;;;5060457;28;20723;-73
2022/09/29 10:10:17;;;;;;;5.53;2.30;;;20.50;99.90;;;;;;5063828;28;20032;-71
2022/09/29 10:12:44;;;;;;;5.10;0.80;;;20.30;99.90;;;;;;5054092;28;20549;-72
2022/09/29 10:15:28;;;;;;;4.13;0.77;;;20.30;99.90;;;;;;5057865;28;20051;-73
2022/09/29 10:18:21;;;;;;;3.22;0.90;;;20.60;99.90;;;;;;5058445;28;20041;-74
2022/09/29 10:20:47;;;;;;;3.22;1.08;;;20.70;99.90;;;;;;5052598;28;20388;-72
2022/09/29 10:23:30;;;;;;;2.42;0.60;;;21.00;99.90;;;;;;5053627;28;20037;-73
2022/09/29 10:26:08;;;;;;;4.63;0.82;;;21.00;99.90;;;;;;5054256;28;20044;-72
2022/09/29 10:29:03;;;;;;;2.60;0.70;;;21.00;99.80;;;;;;5035525;28;20033;-72
2022/09/29 10:31:34;;;;;;;1.92;0.55;;;20.60;99.90;;;;;;5034839;28;20131;-74
2022/09/29 10:34:15;;;;;;;3.10;0.80;;;20.40;99.90;;;;;;5036091;28;20091;-74
2022/09/29 10:36:56;;;;;;;4.63;1.23;;;20.20;99.90;;;;;;5054467;28;20128;-75
2022/09/29 10:39:49;;;;;;;2.65;0.65;;;20.30;99.90;;;;;;5042379;28;20037;-75
2022/09/29 10:42:37;;;;;;;4.63;0.80;;;20.70;99.90;;;;;;5038389;28;20528;-74
2022/09/29 10:45:14;;;;;;;4.30;0.70;;;21.10;99.90;;;;;;5035740;28;20124;-74
2022/09/29 10:47:43;;;;;;;5.00;0.80;;;21.30;99.60;;;;;;5040731;28;20057;-74
2022/09/29 10:50:14;;;;;;;3.40;1.05;;;20.90;99.90;;;;;;5042449;28;20083;-74
2022/09/29 10:52:53;;;;;;;5.97;0.88;;;21.00;99.90;;;;;;5038434;28;20045;-74
2022/09/29 10:55:46;;;;;;;2.50;0.88;;;21.20;99.90;;;;;;5038277;28;20580;-74
2022/09/29 10:58:27;;;;;;;2.70;1.05;;;20.60;99.90;;;;;;5039026;28;20041;-74
2022/09/29 11:01:18;;;;;;;3.45;1.02;;;20.90;99.90;;;;;;5039933;28;20038;-74
2022/09/29 11:03:49;;;;;;;;;;;20.70;99.90;;;;;;5037814;28;20033;-74
2022/09/29 11:06:15;;;;;;;2.97;0.80;;;21.50;99.70;;;;;;5039974;28;20289;-74
2022/09/29 11:09:17;;;;;;;2.80;0.47;;;21.80;99.20;;;;;;5038492;28;20040;-73
2022/09/29 11:11:46;;;;;;;3.75;1.00;;;21.90;98.80;;;;;;5016249;28;20406;-75
2022/09/29 11:14:26;;;;;;;3.90;1.10;;;21.70;99.10;;;;;;5039177;28;20025;-74
2022/09/29 11:16:57;;;;;;;4.90;0.80;;;21.80;99.00;;;;;;5040094;28;20580;-74
2022/09/29 11:19:24;;;;;;;4.05;1.02;;;21.50;99.10;;;;;;5041298;28;20041;-74
2022/09/29 11:21:56;;;;;;;;;;;21.60;99.10;;;;;;5057320;28;20029;-74
2022/09/29 11:24:31;;;;;;;3.92;1.33;;;21.70;99.20;;;;;;5058870;28;19940;-74
2022/09/29 11:27:22;;;;;;;3.90;0.70;;;21.90;98.90;;;;;;5043559;28;20044;-74
2022/09/29 11:30:16;;;;;;;4.75;1.35;;;21.70;99.00;;;;;;5038445;28;20040;-76
2022/09/29 11:33:09;;;;;;;4.53;1.02;;;21.90;98.70;;;;;;5039234;28;20037;-74
2022/09/29 11:36:10;;;;;;;4.78;1.15;;;22.00;98.70;;;;;;5039023;28;20489;-75
2022/09/29 11:38:57;;;;;;;5.05;0.90;;;22.10;98.20;;;;;;5031177;28;20663;-76
2022/09/29 11:41:44;;;;;;;2.28;0.60;;;22.10;98.50;;;;;;5047831;28;21052;-75
2022/09/29 11:44:22;;;;;;;7.13;1.23;;;22.10;98.30;;;;;;5037439;28;20040;-76
2022/09/29 11:47:21;;;;;;;4.05;1.60;;;22.30;98.20;;;;;;5041369;28;20104;-77
2022/09/29 11:50:14;;;;;;;4.07;1.10;;;23.50;97.40;;;;;;5055879;28;20029;-75
2022/09/29 11:53:04;;;;;;;5.57;1.30;;;23.00;96.70;;;;;;5045493;28;20038;-75
2022/09/29 11:55:44;;;;;;;6.30;1.27;;;23.20;97.00;;;;;;5032629;28;20052;-75
2022/09/29 11:58:28;;;;;;;6.72;1.45;;;24.00;96.10;;;;;;5040102;28;20088;-76
2022/09/29 12:01:23;;;;;;;4.68;1.38;;;23.50;96.40;;;;;;5042037;28;20496;-76
2022/09/29 12:04:18;;;;;;;5.22;1.42;;;23.70;96.10;;;;;;5048244;28;20055;-76
2022/09/29 12:06:56;;;;;;;5.72;1.95;;;25.50;95.00;;;;;;5064164;28;20040;-74
2022/09/29 12:09:33;;;;;;;3.42;1.08;;;26.30;94.30;;;;;;5060117;28;20029;-75
2022/09/29 12:12:37;;;;;;;5.65;1.25;;;26.30;93.20;;;;;;5076836;28;20033;-76
2022/09/29 12:15:23;;;;;;;4.22;1.40;;;27.00;92.60;;;;;;5054901;28;20147;-75
2022/09/29 12:17:58;;;;;;;6.00;1.52;;;26.00;92.80;;;;;;5056204;28;20465;-75
2022/09/29 12:20:37;;;;;;;4.20;1.40;;;25.60;92.90;;;;;;5064633;28;20048;-76
2022/09/29 12:23:09;;;;;;;6.03;1.25;;;25.40;92.90;;;;;;5059148;28;20041;-75
2022/09/29 12:25:39;;;;;;;3.97;1.08;;;26.10;93.00;;;;;;5061907;28;20119;-75
2022/09/29 12:28:13;;;;;;;7.80;1.15;;;25.60;92.60;;;;;;5057448;28;20120;-75
2022/09/29 12:31:00;;;;;;;5.22;1.35;;;25.20;92.60;;;;;;5058460;28;20131;-74
2022/09/29 12:33:33;;;;;;;3.35;1.13;;;25.70;92.50;;;;;;5059138;28;20092;-74
2022/09/29 12:36:52;;;;;;;3.90;1.30;;;26.80;92.10;;;;;;5060417;28;20044;-74
2022/09/29 12:39:46;;;;;;;3.75;1.13;;;27.40;91.40;;;;;;5048626;28;20044;-75
2022/09/29 12:42:32;;;;;;;3.92;1.27;;;27.10;91.50;;;;;;5058695;28;20444;-74
2022/09/29 12:45:15;;;;;;;4.00;1.25;;;26.30;91.10;;;;;;5034810;28;20064;-75
2022/09/29 12:47:55;;;;;;;4.60;1.38;;;27.20;90.90;;;;;;5073999;28;20476;-73
2022/09/29 12:50:53;;;;;;;3.75;1.27;;;28.30;90.50;;;;;;5054700;28;20028;-74
2022/09/29 12:53:42;;;;;;;3.45;1.02;;;28.80;90.10;;;;;;5005437;28;20065;-75
2022/09/29 12:56:36;;;;;;;3.58;2.00;;;25.90;90.10;;;;;;5056805;28;20082;-75
2022/09/29 12:59:09;;;;;;;2.42;1.13;;;25.80;90.90;;;;;;5015231;28;20086;-75
2022/09/29 13:01:36;;;;;;;4.53;1.13;;;26.80;90.80;;;;;;5036873;28;20025;-74
2022/09/29 13:04:24;;;;;;;3.65;1.23;;;26.50;90.20;;;;;;5051978;28;20712;-76
2022/09/29 13:07:24;;;;;;;5.22;1.17;;;25.60;90.80;;;;;;5060705;28;20037;-74
2022/09/29 13:09:53;;;;;;;8.02;1.38;;;24.50;92.60;;;;;;5039746;28;20032;-75
2022/09/29 13:12:23;;;;;;;5.53;1.30;;;25.20;92.50;;;;;;5031800;28;20041;-74
2022/09/29 13:14:55;;;;;;;12.38;1.63;;;24.70;93.00;;;;;;5071330;28;20081;-75
2022/09/29 13:17:44;;;;;;;4.88;2.42;;;25.20;93.20;;;;;;5055975;28;20373;-75
2022/09/29 13:20:33;;;;;;;3.72;1.08;;;25.30;92.40;;;;;;5071599;28;20042;-76
2022/09/29 13:23:27;;;;;;;7.65;1.80;;;25.00;92.60;;;;;;5060020;28;20039;-75
2022/09/29 13:26:32;;;;;;;6.53;1.50;;;23.90;94.60;;;;;;5052698;28;20516;-76
2022/09/29 13:29:09;;;;;;;4.53;1.00;;;24.60;94.20;;;;;;5053391;28;20060;-76